Time;durP1;ratioP1;P1;durP2;ratioP2;P2;SDS_P1;SDS_P2;PMS_P1;PMS_P2;Temp;Humidity;BMP_temperature;BMP_pressure;BME280_temperature;BME280_humidity;BME280_pressure;Samples;Min_cycle;Max_cycle;Signal;HPM_P1;HPM_P2
2024/04/03 00:00:25;;;;;;;21.40;8.13;;;;;;;8.79;100.00;100623.63;5042055;28;20495;-70
2024/04/03 00:02:50;;;;;;;21.77;7.85;;;;;;;8.78;100.00;100622.75;5042049;28;20573;-69
2024/04/03 00:05:16;;;;;;;20.30;7.80;;;;;;;8.77;100.00;100620.09;5042019;28;20116;-71
2024/04/03 00:07:41;;;;;;;21.27;7.85;;;;;;;8.75;100.00;100622.69;5044711;28;20483;-73
2024/04/03 00:10:07;;;;;;;20.40;7.72;;;;;;;8.75;100.00;100613.91;5041059;28;20396;-66
2024/04/03 00:12:32;;;;;;;19.77;7.50;;;;;;;8.75;100.00;100619.19;5044204;28;20052;-69
2024/04/03 00:14:58;;;;;;;21.45;7.68;;;;;;;8.73;100.00;100624.44;5042587;28;20570;-72
2024/04/03 00:17:23;;;;;;;19.77;7.22;;;;;;;8.72;100.00;100617.41;5041801;28;20033;-68
2024/04/03 00:19:48;;;;;;;21.58;7.60;;;;;;;8.73;100.00;100612.13;5042433;28;20040;-72
2024/04/03 00:22:13;;;;;;;19.67;7.00;;;;;;;8.71;100.00;100608.63;5039909;28;20116;-72
2024/04/03 00:24:39;;;;;;;21.08;7.22;;;;;;;8.70;100.00;100604.22;5044264;28;20047;-69
2024/04/03 00:27:05;;;;;;;20.13;7.30;;;;;;;8.70;100.00;100603.34;5041439;28;20038;-73
2024/04/03 00:29:30;;;;;;;19.90;6.95;;;;;;;8.70;100.00;100598.94;5043826;28;20080;-75
2024/04/03 00:31:55;;;;;;;20.90;6.70;;;;;;;8.67;100.00;100604.19;5042594;28;20025;-70
2024/04/03 00:34:21;;;;;;;20.27;6.68;;;;;;;8.69;100.00;100609.47;5042466;28;20030;-70
2024/04/03 00:36:51;;;;;;;20.58;6.53;;;;;;;8.66;100.00;100601.53;5043771;28;20033;-70
2024/04/03 00:39:16;;;;;;;18.83;6.43;;;;;;;8.64;100.00;100598.91;5040576;28;20030;-71
2024/04/03 00:41:42;;;;;;;18.55;6.20;;;;;;;8.65;100.00;100599.78;5044558;28;20024;-73
2024/04/03 00:44:07;;;;;;;21.52;6.65;;;;;;;8.65;100.00;100595.41;5036791;28;20128;-66
2024/04/03 00:46:35;;;;;;;19.70;5.90;;;;;;;8.65;100.00;100592.78;5043840;28;20064;-72
2024/04/03 00:49:01;;;;;;;19.42;5.97;;;;;;;8.65;100.00;100591.88;5040815;28;20035;-68
2024/04/03 00:51:26;;;;;;;19.05;6.05;;;;;;;8.65;100.00;100583.97;5040881;28;20027;-69
2024/04/03 00:53:52;;;;;;;18.83;5.78;;;;;;;8.64;100.00;100566.41;5042310;28;20025;-66
2024/04/03 00:56:17;;;;;;;20.13;6.15;;;;;;;8.63;100.00;100560.22;5043620;28;20479;-66
2024/04/03 00:58:42;;;;;;;19.90;6.05;;;;;;;8.63;100.00;100565.50;5041267;28;20061;-66
2024/04/03 01:01:08;;;;;;;21.08;6.05;;;;;;;8.65;100.00;100566.41;5044613;28;20077;-66
2024/04/03 01:03:33;;;;;;;18.98;5.70;;;;;;;8.63;100.00;100567.28;5044302;28;20098;-66
2024/04/03 01:06:02;;;;;;;20.48;6.15;;;;;;;8.63;100.00;100565.50;5042376;28;20163;-66
2024/04/03 01:08:28;;;;;;;19.75;5.50;;;;;;;8.63;100.00;100562.88;5043050;28;20037;-66
2024/04/03 01:10:55;;;;;;;18.92;5.97;;;;;;;8.60;100.00;100554.06;5042710;28;20025;-66
2024/04/03 01:13:20;;;;;;;20.38;5.78;;;;;;;8.60;100.00;100562.84;5040933;28;20025;-70
2024/04/03 01:15:46;;;;;;;20.50;5.93;;;;;;;8.60;100.00;100557.59;5041167;28;20030;-74
2024/04/03 01:18:11;;;;;;;21.15;6.28;;;;;;;8.59;100.00;100569.00;5044111;28;20116;-73
2024/04/03 01:20:36;;;;;;;19.67;5.80;;;;;;;8.60;100.00;100560.22;5039303;28;20137;-71
2024/04/03 01:23:01;;;;;;;19.70;6.05;;;;;;;8.57;100.00;100549.66;5041894;28;20473;-73
2024/04/03 01:25:27;;;;;;;19.50;5.70;;;;;;;8.58;100.00;100548.78;5041819;28;20031;-67
2024/04/03 01:27:52;;;;;;;19.70;6.00;;;;;;;8.57;100.00;100548.78;5042000;28;20030;-67
2024/04/03 01:30:17;;;;;;;20.02;6.15;;;;;;;8.54;100.00;100539.09;5047002;28;20029;-66
2024/04/03 01:32:44;;;;;;;21.40;6.38;;;;;;;8.55;100.00;100538.22;5044296;28;20034;-66
2024/04/03 01:35:10;;;;;;;21.27;6.70;;;;;;;8.54;100.00;100533.81;5047984;28;20021;-74
2024/04/03 01:37:35;;;;;;;20.98;7.05;;;;;;;8.55;100.00;100533.84;5044349;28;20029;-71
2024/04/03 01:40:01;;;;;;;22.25;7.13;;;;;;;8.55;100.00;100528.56;5046394;28;20030;-75
2024/04/03 01:42:27;;;;;;;21.73;6.93;;;;;;;8.53;100.00;100526.78;5045658;28;20170;-74
2024/04/03 01:44:52;;;;;;;20.33;6.38;;;;;;;8.55;100.00;100519.78;5045018;28;20040;-67
2024/04/03 01:47:17;;;;;;;21.30;7.20;;;;;;;8.55;100.00;100525.06;5046596;28;20029;-67
2024/04/03 01:49:43;;;;;;;24.30;7.50;;;;;;;8.52;100.00;100525.03;5042675;28;20029;-67
2024/04/03 01:52:08;;;;;;;21.33;7.10;;;;;;;8.52;100.00;100512.75;5047477;28;20033;-66
2024/04/03 01:54:33;;;;;;;21.55;7.10;;;;;;;8.51;100.00;100510.09;5044162;28;20033;-68
2024/04/03 01:56:59;;;;;;;23.63;7.10;;;;;;;8.50;100.00;100511.84;5046072;28;20029;-67
2024/04/03 01:59:24;;;;;;;22.20;7.10;;;;;;;8.48;100.00;100508.31;5045292;28;20095;-73
2024/04/03 02:01:49;;;;;;;23.13;7.00;;;;;;;8.50;100.00;100501.31;5044601;28;20044;-70
2024/04/03 02:04:15;;;;;;;21.45;7.40;;;;;;;8.49;100.00;100496.00;5046607;28;20053;-66
2024/04/03 02:06:40;;;;;;;21.35;6.78;;;;;;;8.48;100.00;100486.38;5043726;28;20037;-66
2024/04/03 02:09:06;;;;;;;20.90;6.60;;;;;;;8.49;100.00;100493.38;5046566;28;20103;-66
2024/04/03 02:11:31;;;;;;;22.00;6.70;;;;;;;8.47;100.00;100488.09;5044415;28;20056;-66
2024/04/03 02:13:56;;;;;;;22.00;6.82;;;;;;;8.47;100.00;100489.88;5045188;28;20026;-66
2024/04/03 02:16:24;;;;;;;21.85;6.32;;;;;;;8.45;100.00;100481.09;5045630;28;20029;-66
2024/04/03 02:18:50;;;;;;;22.73;7.05;;;;;;;8.43;100.00;100474.88;5044598;28;20068;-66
2024/04/03 02:21:15;;;;;;;20.60;6.57;;;;;;;8.43;100.00;100466.97;5046135;28;20079;-73
2024/04/03 02:23:41;;;;;;;22.00;6.53;;;;;;;8.42;100.00;100462.56;5042334;28;20033;-68
2024/04/03 02:26:06;;;;;;;21.67;6.47;;;;;;;8.43;100.00;100461.69;5046375;28;20032;-77
2024/04/03 02:28:31;;;;;;;20.35;5.90;;;;;;;8.41;100.00;100448.50;5044047;28;20021;-78
2024/04/03 02:31:01;;;;;;;20.33;6.13;;;;;;;8.41;100.00;100442.38;5045382;28;20124;-66
2024/04/03 02:33:27;;;;;;;22.17;5.68;;;;;;;8.37;100.00;100447.63;5044580;28;20104;-68
2024/04/03 02:35:52;;;;;;;20.55;5.43;;;;;;;8.35;100.00;100437.94;5044168;28;20111;-72
2024/04/03 02:38:18;;;;;;;20.30;5.97;;;;;;;8.33;100.00;100432.66;5044807;28;20025;-66
2024/04/03 02:40:43;;;;;;;21.02;5.60;;;;;;;8.32;100.00;100433.53;5040730;28;20468;-67
2024/04/03 02:43:08;;;;;;;21.10;5.90;;;;;;;8.32;100.00;100432.66;5044868;28;20122;-75
2024/04/03 02:45:34;;;;;;;21.45;5.43;;;;;;;8.32;100.00;100427.41;5043681;28;20025;-70
2024/04/03 02:47:59;;;;;;;20.40;5.38;;;;;;;8.30;100.00;100435.28;5045034;28;20140;-75
2024/04/03 02:50:24;;;;;;;19.98;5.20;;;;;;;8.32;100.00;100428.25;5042390;28;20109;-72
2024/04/03 02:52:51;;;;;;;20.92;5.38;;;;;;;8.30;100.00;100421.22;5044353;28;20021;-71
2024/04/03 02:55:16;;;;;;;20.17;5.43;;;;;;;8.29;100.00;100424.75;5042801;28;20033;-66
2024/04/03 02:57:42;;;;;;;22.35;5.63;;;;;;;8.33;100.00;100439.66;5046040;28;20043;-66
2024/04/03 03:00:08;;;;;;;21.10;5.30;;;;;;;8.33;100.00;100421.22;5042770;28;20025;-66
2024/04/03 03:02:33;;;;;;;20.02;5.30;;;;;;;8.32;100.00;100427.41;5044860;28;20125;-70
2024/04/03 03:04:58;;;;;;;19.67;5.25;;;;;;;8.31;100.00;100433.53;5043917;28;20036;-69
2024/04/03 03:07:24;;;;;;;22.67;5.53;;;;;;;8.29;100.00;100416.84;5043768;28;20060;-71
2024/04/03 03:09:49;;;;;;;17.98;4.72;;;;;;;8.29;100.00;100417.72;5046145;28;20029;-66
2024/04/03 03:12:14;;;;;;;18.48;4.80;;;;;;;8.29;100.00;100412.44;5046059;28;20033;-66
2024/04/03 03:14:39;;;;;;;16.42;4.22;;;;;;;8.26;100.00;100414.19;5042247;28;20087;-70
2024/04/03 03:17:05;;;;;;;17.27;4.57;;;;;;;8.27;100.00;100406.31;5045555;28;20029;-70
2024/04/03 03:19:30;;;;;;;19.38;4.80;;;;;;;8.24;100.00;100405.38;5043735;28;20033;-70
2024/04/03 03:21:55;;;;;;;20.60;4.80;;;;;;;8.25;100.00;100402.75;5044054;28;20034;-78
2024/04/03 03:24:23;;;;;;;18.85;4.85;;;;;;;8.23;100.00;100401.88;5042337;28;20048;-74
2024/04/03 03:26:49;;;;;;;18.50;4.80;;;;;;;8.20;100.00;100391.31;5045872;28;20075;-78
2024/04/03 03:29:14;;;;;;;19.50;4.70;;;;;;;8.21;100.00;100393.06;5042975;28;20088;-77
2024/04/03 03:31:39;;;;;;;18.70;4.78;;;;;;;8.19;100.00;100392.19;5044280;28;20025;-74
2024/04/03 03:34:05;;;;;;;19.52;4.70;;;;;;;8.20;100.00;100392.19;5042802;28;20428;-71
2024/04/03 03:36:30;;;;;;;19.58;5.00;;;;;;;8.20;100.00;100384.28;5044319;28;20033;-68
2024/04/03 03:38:55;;;;;;;22.55;5.25;;;;;;;8.20;100.00;100378.16;5042706;28;20096;-73
2024/04/03 03:41:21;;;;;;;20.05;5.32;;;;;;;8.22;100.00;100380.81;5042994;28;20057;-74
2024/04/03 03:43:46;;;;;;;20.00;5.10;;;;;;;8.21;100.00;100377.28;5044958;28;20029;-71
2024/04/03 03:46:11;;;;;;;21.88;5.47;;;;;;;8.20;100.00;100373.75;5042058;28;20087;-73
2024/04/03 03:54:05;;;;;;;20.00;5.07;;;;;;;8.22;100.00;100362.38;5042308;28;20048;-73
2024/04/03 03:56:30;;;;;;;21.52;5.60;;;;;;;8.20;100.00;100357.09;5042628;28;20384;-67
2024/04/03 03:58:55;;;;;;;22.13;5.38;;;;;;;8.20;100.00;100367.63;5042125;28;20037;-72
2024/04/03 04:01:21;;;;;;;20.88;5.35;;;;;;;8.20;100.00;100359.72;5042168;28;20045;-66
2024/04/03 04:03:46;;;;;;;21.05;5.60;;;;;;;8.20;100.00;100354.47;5044253;28;20045;-67
2024/04/03 04:06:12;;;;;;;20.50;5.20;;;;;;;8.20;100.00;100352.69;5041725;28;20025;-73
2024/04/03 04:08:37;;;;;;;21.90;5.40;;;;;;;8.22;100.00;100351.84;5044266;28;20033;-66
2024/04/03 04:11:03;;;;;;;21.08;5.65;;;;;;;8.22;100.00;100344.81;5042020;28;20040;-66
2024/04/03 04:13:29;;;;;;;20.38;5.60;;;;;;;8.20;100.00;100334.25;5043312;28;20037;-70
2024/04/03 04:15:58;;;;;;;21.95;5.63;;;;;;;8.23;100.00;100346.56;5043100;28;20380;-67
2024/04/03 04:18:23;;;;;;;22.60;5.88;;;;;;;8.21;100.00;100340.41;5042154;28;20033;-67
2024/04/03 04:20:56;;;;;;;22.15;5.60;;;;;;;8.21;100.00;100343.03;5042841;28;20029;-66
2024/04/03 04:23:24;;;;;;;;;;;;;;;8.23;100.00;100336.03;5042139;28;20029;-66
2024/04/03 04:26:04;;;;;;;21.52;5.78;;;;;;;8.20;100.00;100329.00;5042352;28;19920;-66
2024/04/03 04:28:33;;;;;;;20.85;5.88;;;;;;;8.22;100.00;100333.41;5043243;28;20397;-66
2024/04/03 04:31:00;;;;;;;20.30;5.60;;;;;;;8.20;100.00;100323.75;5042390;28;20036;-66
2024/04/03 04:33:29;;;;;;;21.33;5.40;;;;;;;8.19;100.00;100319.34;5042401;28;20029;-76
2024/04/03 04:35:56;;;;;;;21.27;5.70;;;;;;;8.20;100.00;100317.59;5043041;28;20040;-75
2024/04/03 04:38:22;;;;;;;21.15;5.55;;;;;;;8.18;100.00;100325.50;5041922;28;20064;-69
2024/04/03 04:41:02;;;;;;;19.95;5.68;;;;;;;8.21;100.00;100324.59;5043845;28;20112;-76
2024/04/03 04:43:29;;;;;;;20.73;5.65;;;;;;;8.20;100.00;100322.88;5045137;28;20039;-73
2024/04/03 04:46:03;;;;;;;21.27;5.57;;;;;;;8.20;100.00;100326.38;5042136;28;20036;-68
2024/04/03 04:48:30;;;;;;;22.92;5.80;;;;;;;8.20;100.00;100318.47;5042579;28;20033;-72
2024/04/03 04:51:01;;;;;;;20.95;5.80;;;;;;;8.20;100.00;100323.75;5042287;28;20029;-71
2024/04/03 04:53:27;;;;;;;22.30;6.32;;;;;;;8.20;100.00;100318.47;5042532;28;20336;-70
2024/04/03 04:56:04;;;;;;;21.98;5.97;;;;;;;8.22;100.00;100326.38;5041772;28;20091;-66
2024/04/03 04:58:30;;;;;;;20.98;5.50;;;;;;;8.22;100.00;100321.09;5042430;28;20025;-68
2024/04/03 05:01:03;;;;;;;23.83;6.10;;;;;;;8.22;100.00;100315.84;5042393;28;20431;-66
2024/04/03 05:03:28;;;;;;;20.52;5.70;;;;;;;8.21;100.00;100319.34;5042770;28;20140;-66
2024/04/03 05:05:54;;;;;;;21.63;6.20;;;;;;;8.22;100.00;100320.25;5046108;28;20056;-66
2024/04/03 05:08:19;;;;;;;21.60;6.00;;;;;;;8.22;100.00;100305.31;5047482;28;20391;-75
2024/04/03 05:10:56;;;;;;;21.00;5.55;;;;;;;8.23;100.00;100317.63;5044556;28;20049;-74
2024/04/03 05:13:22;;;;;;;22.13;6.10;;;;;;;8.22;100.00;100313.22;5047003;28;20043;-73
2024/04/03 05:15:47;;;;;;;22.92;6.25;;;;;;;8.24;100.00;100310.59;5045210;28;20116;-70
2024/04/03 05:18:12;;;;;;;21.05;6.32;;;;;;;8.23;100.00;100298.28;5048063;28;20452;-72
2024/04/03 05:20:38;;;;;;;21.75;5.88;;;;;;;8.23;100.00;100296.53;5044739;28;20117;-70
2024/04/03 05:23:05;;;;;;;22.45;6.50;;;;;;;8.22;100.00;100294.78;5046826;28;20029;-72
2024/04/03 05:25:30;;;;;;;21.23;6.07;;;;;;;8.23;100.00;100291.28;5045849;28;20029;-76
2024/04/03 05:27:56;;;;;;;22.65;5.90;;;;;;;8.23;100.00;100296.53;5046119;28;20128;-72
2024/04/03 05:30:21;;;;;;;23.80;6.47;;;;;;;8.22;100.00;100293.91;5046708;28;20054;-75
2024/04/03 05:32:46;;;;;;;20.90;6.30;;;;;;;8.22;100.00;100294.78;5044321;28;20511;-76
2024/04/03 05:35:14;;;;;;;22.75;6.50;;;;;;;8.20;100.00;100281.59;5047769;28;20044;-75
2024/04/03 05:37:40;;;;;;;21.15;6.32;;;;;;;8.22;100.00;100283.38;5043944;28;20030;-71
2024/04/03 05:40:06;;;;;;;22.40;6.22;;;;;;;8.21;100.00;100277.22;5046784;28;20033;-67
2024/04/03 05:42:31;;;;;;;20.73;6.00;;;;;;;8.20;100.00;100276.34;5045312;28;20028;-68
2024/04/03 05:44:57;;;;;;;21.02;6.53;;;;;;;8.21;100.00;100282.47;5045442;28;20052;-66
2024/04/03 05:47:23;;;;;;;21.55;6.22;;;;;;;8.21;100.00;100282.47;5046548;28;20466;-66
2024/04/03 05:49:53;;;;;;;21.70;6.07;;;;;;;8.23;100.00;100280.75;5044603;28;20111;-67
2024/04/03 05:52:19;;;;;;;22.83;6.00;;;;;;;8.22;100.00;100281.59;5046625;28;20021;-67
2024/04/03 05:54:46;;;;;;;21.50;6.55;;;;;;;8.23;100.00;100275.47;5043801;28;20366;-74
2024/04/03 05:57:12;;;;;;;22.35;5.80;;;;;;;8.23;100.00;100275.47;5040031;28;20388;-66
2024/04/03 05:59:37;;;;;;;20.90;5.90;;;;;;;8.23;100.00;100262.31;5046553;28;20025;-66
2024/04/03 06:02:03;;;;;;;20.73;5.97;;;;;;;8.25;100.00;100270.22;5043497;28;20029;-67
2024/04/03 06:04:28;;;;;;;21.63;6.25;;;;;;;8.25;100.00;100265.81;5045578;28;20029;-67
2024/04/03 06:06:53;;;;;;;23.75;6.07;;;;;;;8.26;100.00;100264.97;5045983;28;20032;-66
2024/04/03 06:09:19;;;;;;;21.08;5.90;;;;;;;8.26;100.00;100264.97;5043932;28;20473;-67
2024/04/03 06:11:44;;;;;;;20.83;5.78;;;;;;;8.28;100.00;100268.47;5047011;28;20066;-68
2024/04/03 06:14:10;;;;;;;22.15;6.22;;;;;;;8.29;100.00;100264.97;5025549;28;20228;-74
2024/04/03 06:16:35;;;;;;;22.25;6.30;;;;;;;8.27;100.00;100264.09;5045025;28;20064;-73
2024/04/03 06:19:03;;;;;;;20.85;5.90;;;;;;;8.29;100.00;100258.84;5047727;28;20037;-75
2024/04/03 06:21:29;;;;;;;22.00;6.13;;;;;;;8.28;100.00;100263.19;5045116;28;20392;-76
2024/04/03 06:23:54;;;;;;;21.73;5.75;;;;;;;8.26;100.00;100264.97;5044967;28;20035;-76
2024/04/03 06:26:20;;;;;;;20.42;5.38;;;;;;;8.26;100.00;100270.22;5046463;28;20037;-76
2024/04/03 06:28:46;;;;;;;20.73;5.53;;;;;;;8.26;100.00;100264.97;5043601;28;20109;-76
2024/04/03 06:31:12;;;;;;;19.70;5.90;;;;;;;8.27;100.00;100264.09;5039473;28;20031;-73
2024/04/03 06:33:37;;;;;;;20.38;5.50;;;;;;;8.29;100.00;100253.56;5045911;28;20044;-70
2024/04/03 06:36:02;;;;;;;20.30;5.95;;;;;;;8.29;100.00;100257.06;5044107;28;20068;-76
2024/04/03 06:38:28;;;;;;;22.05;5.90;;;;;;;8.31;100.00;100246.53;5044758;28;20033;-75
2024/04/03 06:40:53;;;;;;;22.60;6.10;;;;;;;8.30;100.00;100250.03;5045265;28;20442;-69
2024/04/03 06:43:18;;;;;;;21.10;5.93;;;;;;;8.31;100.00;100257.94;5043022;28;20041;-68
2024/04/03 06:45:54;;;;;;;22.23;5.97;;;;;;;8.31;100.00;100257.94;5046401;28;20112;-68
2024/04/03 06:48:20;;;;;;;20.98;5.72;;;;;;;8.29;100.00;100254.44;5040601;28;20095;-75
2024/04/03 06:50:54;;;;;;;22.92;6.57;;;;;;;8.30;100.00;100250.94;5046222;28;20037;-74
2024/04/03 06:53:20;;;;;;;20.23;5.90;;;;;;;8.31;100.00;100255.31;5040374;28;20033;-71
2024/04/03 06:56:04;;;;;;;21.00;5.72;;;;;;;8.32;100.00;100245.69;5046113;28;20055;-68
2024/04/03 06:58:40;;;;;;;22.83;6.57;;;;;;;8.33;100.00;100245.69;5042985;28;20129;-68
2024/04/03 07:01:06;;;;;;;20.50;6.15;;;;;;;8.31;100.00;100242.13;5043320;28;20021;-72
2024/04/03 07:03:32;;;;;;;21.67;6.40;;;;;;;8.32;100.00;100243.91;5043268;28;20057;-76
2024/04/03 07:05:58;;;;;;;20.45;5.78;;;;;;;8.32;100.00;100232.50;5044387;28;20112;-69
2024/04/03 07:08:24;;;;;;;19.70;6.28;;;;;;;8.30;100.00;100237.78;5043364;28;20053;-73
2024/04/03 07:10:49;;;;;;;21.67;5.85;;;;;;;8.30;100.00;100240.41;5045350;28;20540;-71
2024/04/03 07:13:14;;;;;;;20.42;5.85;;;;;;;8.31;100.00;100230.75;5042529;28;20539;-67
2024/04/03 07:15:40;;;;;;;20.83;5.50;;;;;;;8.30;100.00;100224.59;5045509;28;20467;-67
2024/04/03 07:18:05;;;;;;;20.25;5.75;;;;;;;8.32;100.00;100229.88;5043307;28;20078;-67
2024/04/03 07:20:32;;;;;;;20.50;5.88;;;;;;;8.33;100.00;100228.97;5044526;28;20492;-68
2024/04/03 07:22:59;;;;;;;22.05;6.50;;;;;;;8.35;100.00;100229.88;5043872;28;20040;-66
2024/04/03 07:25:25;;;;;;;21.30;6.10;;;;;;;8.42;100.00;100228.13;5043113;28;20515;-67
2024/04/03 07:27:52;;;;;;;22.15;6.22;;;;;;;8.47;100.00;100227.31;5044606;28;20040;-72
2024/04/03 07:30:19;;;;;;;18.58;5.70;;;;;;;8.55;100.00;100235.25;5042103;28;20084;-71
2024/04/03 07:32:44;;;;;;;20.15;6.03;;;;;;;8.60;100.00;100230.88;5045321;28;20060;-75
2024/04/03 07:35:10;;;;;;;20.75;6.15;;;;;;;8.69;100.00;100227.38;5042354;28;20065;-73
2024/04/03 07:37:43;;;;;;;21.40;6.32;;;;;;;8.69;100.00;100223.00;5044398;28;20488;-69
2024/04/03 07:40:10;;;;;;;23.40;6.57;;;;;;;8.71;100.00;100230.91;5042313;28;20034;-71
2024/04/03 07:42:40;;;;;;;19.45;5.80;;;;;;;8.65;100.00;100231.78;5044450;28;20032;-70
2024/04/03 07:45:07;;;;;;;20.17;5.93;;;;;;;8.65;100.00;100229.13;5042458;28;20032;-69
2024/04/03 07:47:33;;;;;;;20.02;5.45;;;;;;;8.69;100.00;100224.72;5043788;28;20115;-76
2024/04/03 07:49:59;;;;;;;19.08;5.80;;;;;;;8.69;100.00;100233.53;5043519;28;20036;-73
2024/04/03 07:52:24;;;;;;;20.40;5.55;;;;;;;8.71;100.00;100229.13;5042528;28;20021;-67
2024/04/03 07:54:50;;;;;;;19.42;5.32;;;;;;;8.72;100.00;100228.28;5044574;28;20091;-71
2024/04/03 07:57:15;;;;;;;20.63;5.38;;;;;;;8.70;100.00;100234.41;5041676;28;20030;-67
2024/04/03 07:59:41;;;;;;;17.88;5.47;;;;;;;8.70;100.00;100237.03;5044917;28;20087;-74
2024/04/03 08:02:07;;;;;;;19.85;4.97;;;;;;;8.67;100.00;100240.53;5042170;28;20041;-67
2024/04/03 08:04:32;;;;;;;17.30;5.07;;;;;;;8.67;100.00;100237.91;5043447;28;20540;-72
2024/04/03 08:07:00;;;;;;;17.25;4.85;;;;;;;8.69;100.00;100244.09;5043219;28;20049;-70
2024/04/03 08:09:25;;;;;;;19.95;5.35;;;;;;;8.75;100.00;100247.59;5042514;28;20101;-75
2024/04/03 08:11:50;;;;;;;18.75;4.85;;;;;;;8.79;100.00;100239.69;5044271;28;20483;-67
2024/04/03 08:14:16;;;;;;;17.83;4.78;;;;;;;8.84;100.00;100243.22;5041120;28;20037;-67
2024/04/03 08:16:41;;;;;;;17.95;5.00;;;;;;;8.86;100.00;100236.19;5044391;28;20025;-66
2024/04/03 08:19:07;;;;;;;18.10;5.13;;;;;;;8.81;100.00;100250.22;5034761;28;20476;-69
2024/04/03 08:21:32;;;;;;;16.95;4.55;;;;;;;8.81;100.00;100237.94;5036328;28;20460;-69
2024/04/03 08:23:58;;;;;;;17.00;4.40;;;;;;;8.79;100.00;100244.09;5040258;28;20112;-67
2024/04/03 08:26:23;;;;;;;18.83;5.85;;;;;;;8.76;100.00;100247.59;5043045;28;20032;-69
2024/04/03 08:28:48;;;;;;;20.10;4.80;;;;;;;8.78;100.00;100242.31;5042463;28;20075;-68
2024/04/03 08:31:16;;;;;;;17.20;4.63;;;;;;;8.79;100.00;100254.63;5041088;28;20059;-72
2024/04/03 08:33:42;;;;;;;15.90;4.70;;;;;;;8.81;100.00;100244.97;5044310;28;20082;-72
2024/04/03 08:36:10;;;;;;;17.00;4.50;;;;;;;8.83;100.00;100248.50;5036623;28;20427;-70
2024/04/03 08:38:36;;;;;;;18.40;5.20;;;;;;;8.94;100.00;100241.50;5042615;28;20332;-70
2024/04/03 08:41:02;;;;;;;18.30;4.82;;;;;;;8.98;100.00;100243.22;5043665;28;20047;-69
2024/04/03 08:43:27;;;;;;;18.20;4.70;;;;;;;9.02;100.00;100245.00;5042140;28;20078;-66
2024/04/03 08:45:55;;;;;;;15.80;4.45;;;;;;;9.02;100.00;100238.84;5042664;28;20034;-67
2024/04/03 08:48:22;;;;;;;16.45;4.45;;;;;;;9.13;100.00;100244.13;5043045;28;20518;-67
2024/04/03 08:50:50;;;;;;;14.43;4.40;;;;;;;9.21;100.00;100245.03;5041346;28;20030;-67
2024/04/03 08:53:23;;;;;;;17.92;4.80;;;;;;;9.29;100.00;100239.75;5043644;28;20610;-68
2024/04/03 08:55:52;;;;;;;17.50;4.70;;;;;;;9.34;100.00;100243.28;5039819;28;20419;-66
2024/04/03 08:58:18;;;;;;;15.90;4.47;;;;;;;9.43;100.00;100244.13;5041611;28;20029;-66
2024/04/03 09:00:44;;;;;;;18.10;4.60;;;;;;;9.45;100.00;100241.50;5043475;28;20036;-66
2024/04/03 09:03:13;;;;;;;13.48;4.30;;;;;;;9.51;100.00;100241.50;5040530;28;20052;-69
2024/04/03 09:05:42;;;;;;;13.73;3.92;;;;;;;9.51;100.00;100246.78;5037062;28;20388;-68
2024/04/03 09:08:10;;;;;;;15.05;4.05;;;;;;;9.55;100.00;100242.38;5036913;28;20033;-67
2024/04/03 09:11:12;;;;;;;15.75;4.13;;;;;;;9.57;100.00;100237.97;5044797;28;20029;-71
2024/04/03 09:13:31;;;;;;;13.00;4.22;;;;;;;9.61;100.00;100234.47;5043033;28;20049;-72
2024/04/03 09:15:57;;;;;;;16.55;4.20;;;;;;;9.68;100.00;100235.31;5042532;28;20036;-68
2024/04/03 09:18:23;;;;;;;16.40;4.55;;;;;;;9.67;100.00;100236.19;5041448;28;20026;-68
2024/04/03 09:20:52;;;;;;;13.18;4.20;;;;;;;9.82;100.00;100224.75;5040565;28;20113;-71
2024/04/03 09:23:18;;;;;;;14.82;4.28;;;;;;;9.88;100.00;100227.38;5041086;28;20029;-66
2024/04/03 09:25:43;;;;;;;13.73;4.25;;;;;;;9.93;100.00;100226.47;5041132;28;20033;-71
2024/04/03 09:28:11;;;;;;;14.68;4.50;;;;;;;10.00;100.00;100222.03;5043659;28;20029;-71
2024/04/03 09:30:45;;;;;;;11.35;4.28;;;;;;;10.04;100.00;100236.97;5040541;28;20030;-72
2024/04/03 09:33:11;;;;;;;13.02;4.00;;;;;;;10.09;100.00;100219.38;5042844;28;20025;-72
2024/04/03 09:35:39;;;;;;;14.00;4.45;;;;;;;10.15;100.00;100223.75;5040701;28;20029;-69
2024/04/03 09:38:05;;;;;;;12.88;4.10;;;;;;;10.16;100.00;100216.72;5043921;28;20025;-71
2024/04/03 09:40:33;;;;;;;15.35;4.40;;;;;;;10.23;100.00;100211.38;5040331;28;20042;-68
2024/04/03 09:43:04;;;;;;;11.20;4.00;;;;;;;10.35;100.00;100210.47;5043798;28;20383;-66
2024/04/03 09:45:30;;;;;;;14.13;4.20;;;;;;;10.35;100.00;100210.47;5039294;28;20021;-68
2024/04/03 09:48:09;;;;;;;15.18;4.15;;;;;;;10.35;100.00;100213.13;5043200;28;20100;-66
2024/04/03 09:50:42;;;;;;;12.95;3.97;;;;;;;10.36;100.00;100212.25;5039354;28;20487;-67
2024/04/03 09:53:15;;;;;;;9.35;3.72;;;;;;;10.35;100.00;100210.47;5046826;28;20033;-66
2024/04/03 09:55:43;;;;;;;12.60;4.00;;;;;;;10.37;100.00;100198.16;5044833;28;20060;-68
2024/04/03 09:58:14;;;;;;;10.25;3.63;;;;;;;10.54;100.00;100198.06;5046680;28;20033;-70
2024/04/03 10:00:40;;;;;;;11.10;4.03;;;;;;;10.53;100.00;100193.66;5044320;28;20024;-68
2024/04/03 10:03:19;;;;;;;9.35;3.70;;;;;;;10.56;100.00;100193.66;5046495;28;20141;-66
2024/04/03 10:05:45;;;;;;;10.48;3.90;;;;;;;10.57;100.00;100187.47;5045128;28;20032;-68
2024/04/03 10:08:11;;;;;;;11.68;4.20;;;;;;;10.56;100.00;100190.13;5044734;28;20112;-67
2024/04/03 10:10:47;;;;;;;11.95;4.10;;;;;;;10.75;100.00;100193.53;5043912;28;20029;-70
2024/04/03 10:13:22;;;;;;;12.52;3.90;;;;;;;10.77;100.00;100186.47;5044487;28;20060;-73
2024/04/03 10:16:05;;;;;;;9.13;3.38;;;;;;;10.79;100.00;100182.94;5045528;28;20033;-67
2024/04/03 10:18:40;;;;;;;7.90;3.20;;;;;;;11.01;100.00;100181.88;5039989;28;20098;-67
2024/04/03 10:21:12;;;;;;;9.23;3.13;;;;;;;11.06;100.00;100185.38;5040506;28;20044;-68
2024/04/03 10:23:44;;;;;;;6.03;2.70;;;;;;;11.07;100.00;100185.34;5042748;28;20116;-67
2024/04/03 10:26:11;;;;;;;8.93;3.00;;;;;;;11.24;100.00;100186.97;5046122;28;20029;-68
2024/04/03 10:28:36;;;;;;;5.20;2.60;;;;;;;11.29;100.00;100185.19;5043776;28;20484;-73
2024/04/03 10:31:02;;;;;;;3.83;2.40;;;;;;;11.30;100.00;100181.63;5046620;28;20044;-70
2024/04/03 10:33:28;;;;;;;7.10;2.75;;;;;;;11.29;100.00;100174.59;5043243;28;20029;-68
2024/04/03 10:35:58;;;;;;;5.38;2.30;;;;;;;11.22;100.00;100194.94;5046066;28;20025;-69
2024/04/03 10:38:24;;;;;;;5.30;2.30;;;;;;;11.20;100.00;100172.00;5043744;28;20055;-69
2024/04/03 10:40:50;;;;;;;4.63;2.45;;;;;;;11.15;100.00;100182.63;5044938;28;20033;-72
2024/04/03 10:43:15;;;;;;;4.47;2.30;;;;;;;11.07;100.00;100174.78;5044975;28;20033;-70
2024/04/03 10:45:47;;;;;;;8.38;2.70;;;;;;;11.04;100.00;100185.38;5043529;28;20033;-69
2024/04/03 10:48:13;;;;;;;6.13;2.58;;;;;;;11.16;100.00;100185.28;5045232;28;20068;-68
2024/04/03 10:50:39;;;;;;;5.22;2.50;;;;;;;11.22;100.00;100194.94;5043329;28;20082;-71
2024/04/03 10:53:05;;;;;;;6.00;2.50;;;;;;;11.24;100.00;100192.25;5046110;28;20481;-69
2024/04/03 10:55:31;;;;;;;4.70;2.50;;;;;;;11.13;100.00;100195.03;5038502;28;20068;-67
2024/04/03 10:58:02;;;;;;;5.72;2.80;;;;;;;11.20;100.00;100206.41;5045694;28;20105;-67
2024/04/03 11:00:34;;;;;;;7.18;2.70;;;;;;;11.20;100.00;100196.72;5042976;28;20033;-71
2024/04/03 11:03:08;;;;;;;6.43;3.00;;;;;;;11.14;100.00;100200.28;5037559;28;20054;-69
2024/04/03 11:05:34;;;;;;;7.20;3.13;;;;;;;11.05;100.00;100192.41;5038741;28;20147;-68
2024/04/03 11:08:03;;;;;;;6.28;3.03;;;;;;;10.81;100.00;100194.34;5045919;28;20044;-68
2024/04/03 11:10:29;;;;;;;9.40;3.03;;;;;;;10.55;100.00;100201.59;5042480;28;20051;-68
2024/04/03 11:13:13;;;;;;;8.00;3.40;;;;;;;10.55;100.00;100204.22;5044903;28;20512;-67
2024/04/03 11:15:39;;;;;;;8.65;3.60;;;;;;;10.52;100.00;100206.91;5038504;28;20029;-67
2024/04/03 11:18:05;;;;;;;9.70;3.80;;;;;;;10.62;100.00;100209.47;5045911;28;20028;-67
2024/04/03 11:20:32;;;;;;;6.88;3.70;;;;;;;10.72;100.00;100205.00;5042073;28;20056;-67